Malton, Canada
Current Conditions -  °F | °C
As of 7:00 PM on Saturday 22 Nov 2014 (Local Time) from CYYZ Reporting Station
Overcast Overcast  
Wind Chill: 34°   Ceiling: 1200
Heat Index: 39°   Visibility: 8mi
Dew Point: 37°   Wind: 8mph
Humidity: 93%   Direction: 200°SSW
Pressure: 29.93"   Gusts: NA
Location:  43.72°N, 79.64°W
Report Text: CYYZ 230000Z 20007KT 8SM OVC012 04/03 A2993 RMK SC8 SLP143
Loading
Personal Weather Stations






























Interactive Weather Map New forecast layout! Learn more

10-Day Weather Forecast

Advertisements
Track Severe Weather on mobile